sensor_id;sensor_type;location;lat;lon;timestamp;P1;durP1;ratioP1;P2;durP2;ratioP2
11039;SDS011;5573;49.592;8.662;2023-05-24T00:00:26;254.48;;;241.02;;
11039;SDS011;5573;49.592;8.662;2023-05-24T00:02:54;273.63;;;259.43;;
11039;SDS011;5573;49.592;8.662;2023-05-24T00:05:23;256.77;;;243.43;;
11039;SDS011;5573;49.592;8.662;2023-05-24T00:07:51;271.37;;;257.10;;
11039;SDS011;5573;49.592;8.662;2023-05-24T00:10:19;248.90;;;235.73;;
11039;SDS011;5573;49.592;8.662;2023-05-24T00:12:47;235.57;;;223.15;;
11039;SDS011;5573;49.592;8.662;2023-05-24T00:15:17;247.38;;;233.90;;
11039;SDS011;5573;49.592;8.662;2023-05-24T00:17:45;253.67;;;240.23;;
11039;SDS011;5573;49.592;8.662;2023-05-24T00:20:13;239.07;;;225.93;;
11039;SDS011;5573;49.592;8.662;2023-05-24T00:22:41;262.73;;;249.10;;
11039;SDS011;5573;49.592;8.662;2023-05-24T00:25:09;245.90;;;232.53;;
11039;SDS011;5573;49.592;8.662;2023-05-24T00:27:37;254.00;;;240.30;;
11039;SDS011;5573;49.592;8.662;2023-05-24T00:30:06;257.07;;;243.47;;
11039;SDS011;5573;49.592;8.662;2023-05-24T00:32:36;251.10;;;237.95;;
11039;SDS011;5573;49.592;8.662;2023-05-24T00:35:04;245.37;;;232.47;;
11039;SDS011;5573;49.592;8.662;2023-05-24T00:37:32;256.67;;;243.10;;
11039;SDS011;5573;49.592;8.662;2023-05-24T00:40:00;242.27;;;229.33;;
11039;SDS011;5573;49.592;8.662;2023-05-24T00:42:29;254.33;;;241.00;;
11039;SDS011;5573;49.592;8.662;2023-05-24T00:44:57;268.63;;;254.20;;
11039;SDS011;5573;49.592;8.662;2023-05-24T00:47:25;252.13;;;238.87;;
11039;SDS011;5573;49.592;8.662;2023-05-24T00:49:54;253.03;;;239.83;;
11039;SDS011;5573;49.592;8.662;2023-05-24T00:52:22;259.73;;;245.67;;
11039;SDS011;5573;49.592;8.662;2023-05-24T00:54:50;234.60;;;222.33;;
11039;SDS011;5573;49.592;8.662;2023-05-24T00:57:18;237.53;;;224.90;;
11039;SDS011;5573;49.592;8.662;2023-05-24T00:59:47;249.53;;;236.37;;
11039;SDS011;5573;49.592;8.662;2023-05-24T01:02:15;262.50;;;248.63;;
11039;SDS011;5573;49.592;8.662;2023-05-24T01:04:45;238.25;;;225.38;;
11039;SDS011;5573;49.592;8.662;2023-05-24T01:07:17;236.73;;;224.10;;
11039;SDS011;5573;49.592;8.662;2023-05-24T01:09:58;241.90;;;228.80;;
11039;SDS011;5573;49.592;8.662;2023-05-24T01:12:40;235.17;;;222.53;;
11039;SDS011;5573;49.592;8.662;2023-05-24T01:15:21;248.00;;;234.70;;
11039;SDS011;5573;49.592;8.662;2023-05-24T01:17:52;245.67;;;232.40;;
11039;SDS011;5573;49.592;8.662;2023-05-24T01:20:31;237.93;;;225.23;;
11039;SDS011;5573;49.592;8.662;2023-05-24T01:23:13;227.13;;;214.93;;
11039;SDS011;5573;49.592;8.662;2023-05-24T01:25:52;245.43;;;232.53;;
11039;SDS011;5573;49.592;8.662;2023-05-24T01:28:34;246.20;;;233.20;;
11039;SDS011;5573;49.592;8.662;2023-05-24T01:31:03;228.83;;;216.57;;
11039;SDS011;5573;49.592;8.662;2023-05-24T01:33:32;253.17;;;239.57;;
11039;SDS011;5573;49.592;8.662;2023-05-24T01:36:00;259.00;;;245.20;;
11039;SDS011;5573;49.592;8.662;2023-05-24T01:38:28;238.50;;;225.70;;
11039;SDS011;5573;49.592;8.662;2023-05-24T01:40:56;248.77;;;235.53;;
11039;SDS011;5573;49.592;8.662;2023-05-24T01:43:32;243.40;;;230.57;;
11039;SDS011;5573;49.592;8.662;2023-05-24T01:46:10;228.10;;;216.13;;
11039;SDS011;5573;49.592;8.662;2023-05-24T01:48:47;250.17;;;237.13;;
11039;SDS011;5573;49.592;8.662;2023-05-24T01:51:26;235.40;;;222.90;;
11039;SDS011;5573;49.592;8.662;2023-05-24T01:54:02;224.23;;;212.27;;
11039;SDS011;5573;49.592;8.662;2023-05-24T01:56:32;230.97;;;218.33;;
11039;SDS011;5573;49.592;8.662;2023-05-24T01:59:03;238.97;;;226.23;;
11039;SDS011;5573;49.592;8.662;2023-05-24T02:01:33;240.87;;;227.87;;
11039;SDS011;5573;49.592;8.662;2023-05-24T02:04:02;242.03;;;228.70;;
11039;SDS011;5573;49.592;8.662;2023-05-24T02:06:30;233.70;;;221.33;;
11039;SDS011;5573;49.592;8.662;2023-05-24T02:08:58;246.23;;;233.10;;
11039;SDS011;5573;49.592;8.662;2023-05-24T02:11:25;240.70;;;227.60;;
11039;SDS011;5573;49.592;8.662;2023-05-24T02:13:53;240.67;;;228.13;;
11039;SDS011;5573;49.592;8.662;2023-05-24T02:16:22;236.50;;;223.83;;
11039;SDS011;5573;49.592;8.662;2023-05-24T02:18:52;260.53;;;246.97;;
11039;SDS011;5573;49.592;8.662;2023-05-24T02:21:20;261.33;;;247.40;;
11039;SDS011;5573;49.592;8.662;2023-05-24T02:23:48;252.27;;;238.75;;
11039;SDS011;5573;49.592;8.662;2023-05-24T02:26:16;238.03;;;225.10;;
11039;SDS011;5573;49.592;8.662;2023-05-24T02:28:45;241.80;;;229.17;;
11039;SDS011;5573;49.592;8.662;2023-05-24T02:31:13;238.07;;;225.52;;
11039;SDS011;5573;49.592;8.662;2023-05-24T02:33:42;241.47;;;228.53;;
11039;SDS011;5573;49.592;8.662;2023-05-24T02:36:10;217.57;;;205.90;;
11039;SDS011;5573;49.592;8.662;2023-05-24T02:38:38;240.27;;;227.27;;
11039;SDS011;5573;49.592;8.662;2023-05-24T02:41:06;234.68;;;222.32;;
11039;SDS011;5573;49.592;8.662;2023-05-24T02:43:35;265.50;;;251.57;;
11039;SDS011;5573;49.592;8.662;2023-05-24T02:46:02;268.05;;;253.60;;
11039;SDS011;5573;49.592;8.662;2023-05-24T02:48:30;253.63;;;240.52;;
11039;SDS011;5573;49.592;8.662;2023-05-24T02:50:59;267.90;;;253.47;;
11039;SDS011;5573;49.592;8.662;2023-05-24T02:53:28;256.70;;;243.38;;
11039;SDS011;5573;49.592;8.662;2023-05-24T02:55:57;254.27;;;240.80;;
11039;SDS011;5573;49.592;8.662;2023-05-24T02:58:28;245.93;;;232.88;;
11039;SDS011;5573;49.592;8.662;2023-05-24T03:00:56;255.43;;;241.65;;
11039;SDS011;5573;49.592;8.662;2023-05-24T03:03:25;252.63;;;239.35;;
11039;SDS011;5573;49.592;8.662;2023-05-24T03:05:53;252.10;;;238.65;;
11039;SDS011;5573;49.592;8.662;2023-05-24T03:08:22;261.90;;;248.17;;
11039;SDS011;5573;49.592;8.662;2023-05-24T03:10:52;265.97;;;252.10;;
11039;SDS011;5573;49.592;8.662;2023-05-24T03:13:20;251.32;;;238.23;;
11039;SDS011;5573;49.592;8.662;2023-05-24T03:15:48;238.15;;;225.57;;
11039;SDS011;5573;49.592;8.662;2023-05-24T03:18:15;273.13;;;258.75;;
11039;SDS011;5573;49.592;8.662;2023-05-24T03:20:44;232.23;;;219.95;;
11039;SDS011;5573;49.592;8.662;2023-05-24T03:23:12;228.23;;;216.20;;
11039;SDS011;5573;49.592;8.662;2023-05-24T03:25:42;275.37;;;260.90;;
11039;SDS011;5573;49.592;8.662;2023-05-24T03:28:09;256.48;;;243.20;;
11039;SDS011;5573;49.592;8.662;2023-05-24T03:30:41;221.25;;;209.48;;
11039;SDS011;5573;49.592;8.662;2023-05-24T03:33:09;262.88;;;248.73;;
11039;SDS011;5573;49.592;8.662;2023-05-24T03:35:37;263.70;;;249.85;;
11039;SDS011;5573;49.592;8.662;2023-05-24T03:38:05;260.58;;;246.85;;
11039;SDS011;5573;49.592;8.662;2023-05-24T03:40:36;263.87;;;249.87;;
11039;SDS011;5573;49.592;8.662;2023-05-24T03:43:10;250.05;;;237.10;;
11039;SDS011;5573;49.592;8.662;2023-05-24T03:45:46;244.73;;;232.15;;
11039;SDS011;5573;49.592;8.662;2023-05-24T03:48:14;252.03;;;238.90;;
11039;SDS011;5573;49.592;8.662;2023-05-24T03:50:43;255.77;;;242.13;;
11039;SDS011;5573;49.592;8.662;2023-05-24T03:53:11;261.60;;;247.17;;
11039;SDS011;5573;49.592;8.662;2023-05-24T03:55:39;250.82;;;237.30;;
11039;SDS011;5573;49.592;8.662;2023-05-24T03:58:06;245.97;;;232.93;;
11039;SDS011;5573;49.592;8.662;2023-05-24T04:00:36;247.10;;;234.20;;
11039;SDS011;5573;49.592;8.662;2023-05-24T04:03:04;263.55;;;249.40;;
11039;SDS011;5573;49.592;8.662;2023-05-24T04:05:33;255.13;;;241.67;;
11039;SDS011;5573;49.592;8.662;2023-05-24T04:08:00;252.07;;;238.65;;
11039;SDS011;5573;49.592;8.662;2023-05-24T04:10:28;265.50;;;251.63;;
11039;SDS011;5573;49.592;8.662;2023-05-24T04:12:56;262.37;;;248.57;;
11039;SDS011;5573;49.592;8.662;2023-05-24T04:15:26;255.97;;;242.47;;
11039;SDS011;5573;49.592;8.662;2023-05-24T04:17:55;247.90;;;234.83;;
11039;SDS011;5573;49.592;8.662;2023-05-24T04:20:23;264.02;;;250.35;;
11039;SDS011;5573;49.592;8.662;2023-05-24T04:22:53;279.70;;;265.02;;
11039;SDS011;5573;49.592;8.662;2023-05-24T04:25:22;260.80;;;246.85;;
11039;SDS011;5573;49.592;8.662;2023-05-24T04:27:50;247.88;;;234.88;;
11039;SDS011;5573;49.592;8.662;2023-05-24T04:30:17;252.15;;;238.82;;
11039;SDS011;5573;49.592;8.662;2023-05-24T04:32:46;245.43;;;232.63;;
11039;SDS011;5573;49.592;8.662;2023-05-24T04:35:16;265.70;;;251.53;;
11039;SDS011;5573;49.592;8.662;2023-05-24T04:37:44;241.98;;;229.45;;
11039;SDS011;5573;49.592;8.662;2023-05-24T04:40:15;243.93;;;231.07;;
11039;SDS011;5573;49.592;8.662;2023-05-24T04:42:42;255.17;;;241.50;;
11039;SDS011;5573;49.592;8.662;2023-05-24T04:45:10;247.13;;;234.10;;
11039;SDS011;5573;49.592;8.662;2023-05-24T04:47:38;265.63;;;251.80;;
11039;SDS011;5573;49.592;8.662;2023-05-24T04:50:08;235.07;;;222.65;;
11039;SDS011;5573;49.592;8.662;2023-05-24T04:52:37;249.30;;;235.73;;
11039;SDS011;5573;49.592;8.662;2023-05-24T04:55:05;223.48;;;211.70;;
11039;SDS011;5573;49.592;8.662;2023-05-24T04:57:33;255.73;;;242.27;;
11039;SDS011;5573;49.592;8.662;2023-05-24T05:00:01;251.43;;;238.23;;
11039;SDS011;5573;49.592;8.662;2023-05-24T05:02:30;247.03;;;234.00;;
11039;SDS011;5573;49.592;8.662;2023-05-24T05:04:59;256.65;;;243.07;;
11039;SDS011;5573;49.592;8.662;2023-05-24T05:07:26;266.40;;;252.23;;
11039;SDS011;5573;49.592;8.662;2023-05-24T05:09:55;259.70;;;246.02;;
11039;SDS011;5573;49.592;8.662;2023-05-24T05:12:23;258.37;;;244.63;;
11039;SDS011;5573;49.592;8.662;2023-05-24T05:14:51;274.57;;;260.10;;
11039;SDS011;5573;49.592;8.662;2023-05-24T05:17:19;256.17;;;242.63;;
11039;SDS011;5573;49.592;8.662;2023-05-24T05:19:47;247.82;;;234.60;;
11039;SDS011;5573;49.592;8.662;2023-05-24T05:22:15;245.80;;;232.73;;
11039;SDS011;5573;49.592;8.662;2023-05-24T05:24:43;244.13;;;231.13;;
11039;SDS011;5573;49.592;8.662;2023-05-24T05:27:12;246.82;;;233.60;;
11039;SDS011;5573;49.592;8.662;2023-05-24T05:29:40;248.57;;;235.48;;
11039;SDS011;5573;49.592;8.662;2023-05-24T05:32:08;248.40;;;235.57;;
11039;SDS011;5573;49.592;8.662;2023-05-24T05:34:36;246.65;;;233.75;;
11039;SDS011;5573;49.592;8.662;2023-05-24T05:37:04;252.75;;;239.68;;
11039;SDS011;5573;49.592;8.662;2023-05-24T05:39:32;235.32;;;222.95;;
11039;SDS011;5573;49.592;8.662;2023-05-24T05:41:59;234.67;;;222.33;;
11039;SDS011;5573;49.592;8.662;2023-05-24T05:44:29;244.87;;;232.13;;
11039;SDS011;5573;49.592;8.662;2023-05-24T05:46:56;239.30;;;226.60;;
11039;SDS011;5573;49.592;8.662;2023-05-24T05:49:24;218.85;;;207.13;;
11039;SDS011;5573;49.592;8.662;2023-05-24T05:51:52;225.55;;;213.77;;
11039;SDS011;5573;49.592;8.662;2023-05-24T05:54:20;214.50;;;203.13;;
11039;SDS011;5573;49.592;8.662;2023-05-24T05:56:48;229.00;;;216.93;;
11039;SDS011;5573;49.592;8.662;2023-05-24T05:59:16;225.90;;;213.95;;
11039;SDS011;5573;49.592;8.662;2023-05-24T06:01:46;240.27;;;227.68;;
11039;SDS011;5573;49.592;8.662;2023-05-24T06:04:14;227.63;;;215.52;;
11039;SDS011;5573;49.592;8.662;2023-05-24T06:06:42;235.27;;;222.93;;
11039;SDS011;5573;49.592;8.662;2023-05-24T06:09:14;231.88;;;219.55;;
11039;SDS011;5573;49.592;8.662;2023-05-24T06:11:42;228.23;;;216.02;;
11039;SDS011;5573;49.592;8.662;2023-05-24T06:14:11;224.73;;;212.90;;
11039;SDS011;5573;49.592;8.662;2023-05-24T06:16:43;239.73;;;227.45;;
11039;SDS011;5573;49.592;8.662;2023-05-24T06:19:13;209.95;;;198.82;;
11039;SDS011;5573;49.592;8.662;2023-05-24T06:21:41;231.85;;;219.68;;
11039;SDS011;5573;49.592;8.662;2023-05-24T06:24:13;206.43;;;195.43;;
11039;SDS011;5573;49.592;8.662;2023-05-24T06:26:45;226.23;;;214.48;;
11039;SDS011;5573;49.592;8.662;2023-05-24T06:29:13;229.48;;;217.65;;
11039;SDS011;5573;49.592;8.662;2023-05-24T06:31:41;234.45;;;222.25;;
11039;SDS011;5573;49.592;8.662;2023-05-24T06:34:11;233.30;;;221.30;;
11039;SDS011;5573;49.592;8.662;2023-05-24T06:36:42;244.18;;;231.18;;
11039;SDS011;5573;49.592;8.662;2023-05-24T06:39:11;241.48;;;228.80;;
11039;SDS011;5573;49.592;8.662;2023-05-24T06:41:39;234.90;;;222.73;;
11039;SDS011;5573;49.592;8.662;2023-05-24T06:44:07;237.80;;;225.32;;
11039;SDS011;5573;49.592;8.662;2023-05-24T06:46:35;244.15;;;231.52;;
11039;SDS011;5573;49.592;8.662;2023-05-24T06:49:03;235.02;;;222.60;;
11039;SDS011;5573;49.592;8.662;2023-05-24T06:51:32;248.27;;;235.20;;
11039;SDS011;5573;49.592;8.662;2023-05-24T06:54:00;253.38;;;240.38;;
11039;SDS011;5573;49.592;8.662;2023-05-24T06:56:29;213.02;;;201.68;;
11039;SDS011;5573;49.592;8.662;2023-05-24T06:58:57;172.18;;;163.10;;
11039;SDS011;5573;49.592;8.662;2023-05-24T07:01:26;168.60;;;159.77;;
11039;SDS011;5573;49.592;8.662;2023-05-24T07:03:54;182.88;;;173.07;;
11039;SDS011;5573;49.592;8.662;2023-05-24T07:06:22;171.10;;;162.02;;
11039;SDS011;5573;49.592;8.662;2023-05-24T07:08:51;163.15;;;154.30;;
11039;SDS011;5573;49.592;8.662;2023-05-24T07:11:19;176.25;;;166.82;;
11039;SDS011;5573;49.592;8.662;2023-05-24T07:13:47;182.93;;;172.90;;
11039;SDS011;5573;49.592;8.662;2023-05-24T07:16:15;206.50;;;195.48;;
11039;SDS011;5573;49.592;8.662;2023-05-24T07:18:43;205.18;;;194.20;;
11039;SDS011;5573;49.592;8.662;2023-05-24T07:21:10;215.95;;;204.07;;
11039;SDS011;5573;49.592;8.662;2023-05-24T07:23:38;249.65;;;236.10;;
11039;SDS011;5573;49.592;8.662;2023-05-24T07:26:08;246.98;;;233.73;;
11039;SDS011;5573;49.592;8.662;2023-05-24T07:28:36;245.25;;;232.02;;
11039;SDS011;5573;49.592;8.662;2023-05-24T07:31:07;258.98;;;245.18;;
11039;SDS011;5573;49.592;8.662;2023-05-24T07:33:35;263.70;;;249.25;;
11039;SDS011;5573;49.592;8.662;2023-05-24T07:36:03;240.80;;;228.10;;
11039;SDS011;5573;49.592;8.662;2023-05-24T07:38:32;233.93;;;221.30;;
11039;SDS011;5573;49.592;8.662;2023-05-24T07:41:01;228.32;;;216.40;;
11039;SDS011;5573;49.592;8.662;2023-05-24T07:43:31;213.77;;;202.38;;
11039;SDS011;5573;49.592;8.662;2023-05-24T07:45:59;227.75;;;215.70;;
11039;SDS011;5573;49.592;8.662;2023-05-24T07:48:27;218.23;;;206.40;;
11039;SDS011;5573;49.592;8.662;2023-05-24T07:50:54;214.20;;;202.57;;
11039;SDS011;5573;49.592;8.662;2023-05-24T07:53:22;206.52;;;195.45;;
11039;SDS011;5573;49.592;8.662;2023-05-24T07:55:50;210.18;;;199.00;;
11039;SDS011;5573;49.592;8.662;2023-05-24T07:58:18;209.52;;;198.35;;
11039;SDS011;5573;49.592;8.662;2023-05-24T08:00:47;198.98;;;188.55;;
11039;SDS011;5573;49.592;8.662;2023-05-24T08:03:14;184.60;;;174.60;;
11039;SDS011;5573;49.592;8.662;2023-05-24T08:05:43;190.77;;;180.52;;
11039;SDS011;5573;49.592;8.662;2023-05-24T08:08:11;169.30;;;160.38;;
11039;SDS011;5573;49.592;8.662;2023-05-24T08:10:39;175.23;;;165.93;;
11039;SDS011;5573;49.592;8.662;2023-05-24T08:13:07;176.32;;;167.02;;
11039;SDS011;5573;49.592;8.662;2023-05-24T08:15:35;180.50;;;170.70;;
11039;SDS011;5573;49.592;8.662;2023-05-24T08:18:04;181.80;;;171.95;;
11039;SDS011;5573;49.592;8.662;2023-05-24T08:20:32;190.50;;;179.95;;
11039;SDS011;5573;49.592;8.662;2023-05-24T08:23:02;201.60;;;190.55;;
11039;SDS011;5573;49.592;8.662;2023-05-24T08:25:29;202.35;;;191.35;;
11039;SDS011;5573;49.592;8.662;2023-05-24T08:27:58;199.70;;;188.85;;
11039;SDS011;5573;49.592;8.662;2023-05-24T08:30:26;203.15;;;192.05;;
11039;SDS011;5573;49.592;8.662;2023-05-24T08:32:54;188.07;;;177.88;;
11039;SDS011;5573;49.592;8.662;2023-05-24T08:35:25;187.30;;;176.93;;
11039;SDS011;5573;49.592;8.662;2023-05-24T08:37:52;181.13;;;171.23;;
11039;SDS011;5573;49.592;8.662;2023-05-24T08:40:20;175.18;;;165.60;;
11039;SDS011;5573;49.592;8.662;2023-05-24T08:42:49;167.57;;;158.43;;
11039;SDS011;5573;49.592;8.662;2023-05-24T08:45:19;168.75;;;159.65;;
11039;SDS011;5573;49.592;8.662;2023-05-24T08:47:50;188.27;;;178.00;;
11039;SDS011;5573;49.592;8.662;2023-05-24T08:50:19;178.02;;;168.40;;
11039;SDS011;5573;49.592;8.662;2023-05-24T08:52:48;192.25;;;181.82;;
11039;SDS011;5573;49.592;8.662;2023-05-24T08:55:17;187.25;;;176.93;;
11039;SDS011;5573;49.592;8.662;2023-05-24T08:57:46;179.68;;;169.43;;
11039;SDS011;5573;49.592;8.662;2023-05-24T09:00:15;167.93;;;158.65;;
11039;SDS011;5573;49.592;8.662;2023-05-24T09:02:45;183.77;;;173.80;;
11039;SDS011;5573;49.592;8.662;2023-05-24T09:05:13;183.60;;;173.32;;
11039;SDS011;5573;49.592;8.662;2023-05-24T09:07:43;176.05;;;166.35;;
11039;SDS011;5573;49.592;8.662;2023-05-24T09:10:13;196.25;;;185.57;;
11039;SDS011;5573;49.592;8.662;2023-05-24T09:12:43;186.25;;;175.93;;
11039;SDS011;5573;49.592;8.662;2023-05-24T09:15:12;176.00;;;166.40;;
11039;SDS011;5573;49.592;8.662;2023-05-24T09:17:40;193.73;;;183.07;;
11039;SDS011;5573;49.592;8.662;2023-05-24T09:20:08;204.25;;;192.88;;
11039;SDS011;5573;49.592;8.662;2023-05-24T09:22:37;175.18;;;165.63;;
11039;SDS011;5573;49.592;8.662;2023-05-24T09:25:08;198.10;;;187.18;;
11039;SDS011;5573;49.592;8.662;2023-05-24T09:27:40;194.35;;;183.77;;
11039;SDS011;5573;49.592;8.662;2023-05-24T09:30:12;195.95;;;185.30;;
11039;SDS011;5573;49.592;8.662;2023-05-24T09:32:43;206.63;;;195.48;;
11039;SDS011;5573;49.592;8.662;2023-05-24T09:35:21;198.80;;;188.00;;
11039;SDS011;5573;49.592;8.662;2023-05-24T09:37:55;195.63;;;184.93;;
11039;SDS011;5573;49.592;8.662;2023-05-24T09:40:25;206.27;;;195.07;;
11039;SDS011;5573;49.592;8.662;2023-05-24T09:43:05;202.60;;;191.65;;
11039;SDS011;5573;49.592;8.662;2023-05-24T09:45:40;189.15;;;179.13;;
11039;SDS011;5573;49.592;8.662;2023-05-24T09:48:10;204.43;;;193.45;;
11039;SDS011;5573;49.592;8.662;2023-05-24T09:50:38;188.52;;;178.55;;
11039;SDS011;5573;49.592;8.662;2023-05-24T09:53:07;215.13;;;203.52;;
11039;SDS011;5573;49.592;8.662;2023-05-24T09:55:35;204.07;;;192.95;;
11039;SDS011;5573;49.592;8.662;2023-05-24T09:58:05;198.07;;;187.18;;
11039;SDS011;5573;49.592;8.662;2023-05-24T10:00:35;187.82;;;177.68;;
11039;SDS011;5573;49.592;8.662;2023-05-24T10:03:07;181.77;;;171.70;;
11039;SDS011;5573;49.592;8.662;2023-05-24T10:05:36;185.25;;;175.40;;
11039;SDS011;5573;49.592;8.662;2023-05-24T10:08:05;188.32;;;177.88;;
11039;SDS011;5573;49.592;8.662;2023-05-24T10:10:35;188.65;;;178.23;;
11039;SDS011;5573;49.592;8.662;2023-05-24T10:13:03;195.95;;;185.40;;
11039;SDS011;5573;49.592;8.662;2023-05-24T10:15:32;193.75;;;183.15;;
11039;SDS011;5573;49.592;8.662;2023-05-24T10:18:00;189.55;;;178.93;;
11039;SDS011;5573;49.592;8.662;2023-05-24T10:20:37;193.73;;;183.30;;
11039;SDS011;5573;49.592;8.662;2023-05-24T10:23:08;188.65;;;178.40;;
11039;SDS011;5573;49.592;8.662;2023-05-24T10:25:37;181.15;;;171.18;;
11039;SDS011;5573;49.592;8.662;2023-05-24T10:28:14;188.23;;;177.77;;
11039;SDS011;5573;49.592;8.662;2023-05-24T10:30:47;189.52;;;179.20;;
11039;SDS011;5573;49.592;8.662;2023-05-24T10:33:21;190.75;;;180.32;;
11039;SDS011;5573;49.592;8.662;2023-05-24T10:35:51;200.35;;;189.32;;
11039;SDS011;5573;49.592;8.662;2023-05-24T10:38:20;209.75;;;198.35;;
11039;SDS011;5573;49.592;8.662;2023-05-24T10:40:49;211.38;;;199.85;;
11039;SDS011;5573;49.592;8.662;2023-05-24T10:43:19;195.18;;;184.65;;
11039;SDS011;5573;49.592;8.662;2023-05-24T10:45:48;206.60;;;195.02;;
11039;SDS011;5573;49.592;8.662;2023-05-24T10:51:32;189.88;;;179.45;;
11039;SDS011;5573;49.592;8.662;2023-05-24T10:54:15;206.93;;;195.68;;
11039;SDS011;5573;49.592;8.662;2023-05-24T10:56:45;205.82;;;194.57;;
11039;SDS011;5573;49.592;8.662;2023-05-24T10:59:22;207.25;;;196.07;;
11039;SDS011;5573;49.592;8.662;2023-05-24T11:01:54;198.18;;;187.43;;
11039;SDS011;5573;49.592;8.662;2023-05-24T11:04:24;199.40;;;188.35;;
11039;SDS011;5573;49.592;8.662;2023-05-24T11:06:54;212.60;;;201.23;;
11039;SDS011;5573;49.592;8.662;2023-05-24T11:09:23;230.27;;;217.80;;
11039;SDS011;5573;49.592;8.662;2023-05-24T11:11:53;207.45;;;196.30;;
11039;SDS011;5573;49.592;8.662;2023-05-24T11:14:23;208.27;;;197.10;;
11039;SDS011;5573;49.592;8.662;2023-05-24T11:16:57;204.68;;;193.45;;
11039;SDS011;5573;49.592;8.662;2023-05-24T11:19:30;187.30;;;177.32;;
11039;SDS011;5573;49.592;8.662;2023-05-24T11:22:00;191.98;;;181.25;;
11039;SDS011;5573;49.592;8.662;2023-05-24T11:24:29;192.27;;;181.63;;
11039;SDS011;5573;49.592;8.662;2023-05-24T11:26:58;182.32;;;172.35;;
11039;SDS011;5573;49.592;8.662;2023-05-24T11:29:28;190.15;;;179.75;;
11039;SDS011;5573;49.592;8.662;2023-05-24T11:31:57;211.23;;;199.77;;
11039;SDS011;5573;49.592;8.662;2023-05-24T11:34:30;202.23;;;191.15;;
11039;SDS011;5573;49.592;8.662;2023-05-24T11:36:58;186.13;;;176.13;;
11039;SDS011;5573;49.592;8.662;2023-05-24T11:39:27;190.45;;;180.02;;
11039;SDS011;5573;49.592;8.662;2023-05-24T11:41:57;195.00;;;184.57;;
11039;SDS011;5573;49.592;8.662;2023-05-24T11:44:26;176.27;;;166.75;;
11039;SDS011;5573;49.592;8.662;2023-05-24T11:46:57;209.90;;;198.52;;
11039;SDS011;5573;49.592;8.662;2023-05-24T11:49:26;206.98;;;195.80;;
11039;SDS011;5573;49.592;8.662;2023-05-24T11:51:54;220.35;;;208.77;;
11039;SDS011;5573;49.592;8.662;2023-05-24T11:54:23;206.68;;;195.60;;
11039;SDS011;5573;49.592;8.662;2023-05-24T11:56:52;224.27;;;212.35;;
11039;SDS011;5573;49.592;8.662;2023-05-24T11:59:21;221.00;;;208.88;;
11039;SDS011;5573;49.592;8.662;2023-05-24T12:01:55;232.10;;;219.88;;
11039;SDS011;5573;49.592;8.662;2023-05-24T12:04:27;204.65;;;193.63;;
11039;SDS011;5573;49.592;8.662;2023-05-24T12:06:56;219.65;;;207.88;;
11039;SDS011;5573;49.592;8.662;2023-05-24T12:09:24;230.07;;;218.02;;
11039;SDS011;5573;49.592;8.662;2023-05-24T12:11:53;236.55;;;224.02;;
11039;SDS011;5573;49.592;8.662;2023-05-24T12:14:23;213.98;;;202.70;;
11039;SDS011;5573;49.592;8.662;2023-05-24T12:16:54;230.55;;;218.25;;
11039;SDS011;5573;49.592;8.662;2023-05-24T12:19:24;224.85;;;212.57;;
11039;SDS011;5573;49.592;8.662;2023-05-24T12:21:59;206.57;;;195.60;;
11039;SDS011;5573;49.592;8.662;2023-05-24T12:24:27;223.00;;;210.93;;
11039;SDS011;5573;49.592;8.662;2023-05-24T12:26:58;223.23;;;211.25;;
11039;SDS011;5573;49.592;8.662;2023-05-24T12:29:31;235.80;;;223.38;;
11039;SDS011;5573;49.592;8.662;2023-05-24T12:31:59;222.55;;;210.57;;
11039;SDS011;5573;49.592;8.662;2023-05-24T12:34:28;212.15;;;200.57;;
11039;SDS011;5573;49.592;8.662;2023-05-24T12:36:56;231.57;;;219.02;;
11039;SDS011;5573;49.592;8.662;2023-05-24T12:39:24;238.23;;;225.63;;
11039;SDS011;5573;49.592;8.662;2023-05-24T12:41:56;217.60;;;205.90;;
11039;SDS011;5573;49.592;8.662;2023-05-24T12:44:27;223.93;;;211.90;;
11039;SDS011;5573;49.592;8.662;2023-05-24T12:46:56;218.02;;;206.55;;
11039;SDS011;5573;49.592;8.662;2023-05-24T12:49:25;231.85;;;219.32;;
11039;SDS011;5573;49.592;8.662;2023-05-24T12:51:54;251.55;;;238.15;;
11039;SDS011;5573;49.592;8.662;2023-05-24T12:54:24;234.48;;;221.60;;
11039;SDS011;5573;49.592;8.662;2023-05-24T12:56:53;238.20;;;225.70;;
11039;SDS011;5573;49.592;8.662;2023-05-24T12:59:24;235.90;;;223.15;;
11039;SDS011;5573;49.592;8.662;2023-05-24T13:01:53;238.02;;;225.57;;
11039;SDS011;5573;49.592;8.662;2023-05-24T13:04:21;223.35;;;211.55;;
11039;SDS011;5573;49.592;8.662;2023-05-24T13:06:51;239.73;;;226.82;;
11039;SDS011;5573;49.592;8.662;2023-05-24T13:09:21;234.60;;;221.63;;
11039;SDS011;5573;49.592;8.662;2023-05-24T13:11:50;212.70;;;201.40;;
11039;SDS011;5573;49.592;8.662;2023-05-24T13:14:19;222.07;;;210.40;;
11039;SDS011;5573;49.592;8.662;2023-05-24T13:16:47;229.00;;;216.60;;
11039;SDS011;5573;49.592;8.662;2023-05-24T13:19:16;233.50;;;220.95;;
11039;SDS011;5573;49.592;8.662;2023-05-24T13:21:44;237.00;;;224.40;;
11039;SDS011;5573;49.592;8.662;2023-05-24T13:24:13;230.00;;;217.75;;
11039;SDS011;5573;49.592;8.662;2023-05-24T13:26:43;221.05;;;209.20;;
11039;SDS011;5573;49.592;8.662;2023-05-24T13:29:12;233.27;;;220.93;;
11039;SDS011;5573;49.592;8.662;2023-05-24T13:31:43;229.93;;;217.80;;
11039;SDS011;5573;49.592;8.662;2023-05-24T13:34:11;227.57;;;215.52;;
11039;SDS011;5573;49.592;8.662;2023-05-24T13:36:39;229.70;;;217.43;;
11039;SDS011;5573;49.592;8.662;2023-05-24T13:39:07;247.77;;;234.77;;
11039;SDS011;5573;49.592;8.662;2023-05-24T13:41:57;230.77;;;218.43;;
11039;SDS011;5573;49.592;8.662;2023-05-24T13:44:26;242.50;;;229.65;;
11039;SDS011;5573;49.592;8.662;2023-05-24T13:46:54;247.95;;;234.65;;
11039;SDS011;5573;49.592;8.662;2023-05-24T13:49:22;228.23;;;216.23;;
11039;SDS011;5573;49.592;8.662;2023-05-24T13:51:50;225.70;;;213.70;;
11039;SDS011;5573;49.592;8.662;2023-05-24T13:54:22;228.30;;;216.07;;
11039;SDS011;5573;49.592;8.662;2023-05-24T13:56:51;225.82;;;213.88;;
11039;SDS011;5573;49.592;8.662;2023-05-24T13:59:24;248.75;;;235.48;;
11039;SDS011;5573;49.592;8.662;2023-05-24T14:01:52;230.63;;;218.50;;
11039;SDS011;5573;49.592;8.662;2023-05-24T14:04:20;243.00;;;229.93;;
11039;SDS011;5573;49.592;8.662;2023-05-24T14:06:48;248.02;;;234.57;;
11039;SDS011;5573;49.592;8.662;2023-05-24T14:09:16;244.88;;;231.43;;
11039;SDS011;5573;49.592;8.662;2023-05-24T14:11:46;250.65;;;237.48;;
11039;SDS011;5573;49.592;8.662;2023-05-24T14:14:14;254.60;;;240.80;;
11039;SDS011;5573;49.592;8.662;2023-05-24T14:16:46;233.65;;;221.45;;
11039;SDS011;5573;49.592;8.662;2023-05-24T14:19:17;230.18;;;218.05;;
11039;SDS011;5573;49.592;8.662;2023-05-24T14:21:45;245.82;;;232.80;;
11039;SDS011;5573;49.592;8.662;2023-05-24T14:24:13;255.65;;;241.85;;